sensor_id;sensor_type;location;lat;lon;timestamp;pressure;altitude;pressure_sealevel;temperature;humidity
13407;BME280;6774;48.208;10.766;2024-01-25T00:00:12;96669.09;;;8.09;82.47
13407;BME280;6774;48.208;10.766;2024-01-25T00:02:40;96666.88;;;8.14;81.88
13407;BME280;6774;48.208;10.766;2024-01-25T00:05:08;96647.34;;;8.16;82.07
13407;BME280;6774;48.208;10.766;2024-01-25T00:07:44;96647.19;;;8.18;81.37
13407;BME280;6774;48.208;10.766;2024-01-25T00:10:13;96642.75;;;8.18;80.87
13407;BME280;6774;48.208;10.766;2024-01-25T00:12:41;96642.28;;;8.33;81.30
13407;BME280;6774;48.208;10.766;2024-01-25T00:15:11;96638.94;;;8.03;82.04
13407;BME280;6774;48.208;10.766;2024-01-25T00:17:38;96636.81;;;8.16;81.62
13407;BME280;6774;48.208;10.766;2024-01-25T00:20:09;96635.16;;;8.15;81.67
13407;BME280;6774;48.208;10.766;2024-01-25T00:22:37;96648.72;;;8.11;81.75
13407;BME280;6774;48.208;10.766;2024-01-25T00:25:06;96643.72;;;8.17;82.00
13407;BME280;6774;48.208;10.766;2024-01-25T00:27:34;96655.38;;;8.15;82.42
13407;BME280;6774;48.208;10.766;2024-01-25T00:30:01;96634.56;;;8.21;81.53
13407;BME280;6774;48.208;10.766;2024-01-25T00:32:32;96647.91;;;8.10;82.61
13407;BME280;6774;48.208;10.766;2024-01-25T00:35:01;96655.22;;;8.16;81.72
13407;BME280;6774;48.208;10.766;2024-01-25T00:37:30;96655.34;;;8.24;81.47
13407;BME280;6774;48.208;10.766;2024-01-25T00:39:58;96644.78;;;8.34;81.23
13407;BME280;6774;48.208;10.766;2024-01-25T00:42:26;96648.44;;;8.23;82.10
13407;BME280;6774;48.208;10.766;2024-01-25T00:44:56;96650.31;;;8.31;81.64
13407;BME280;6774;48.208;10.766;2024-01-25T00:47:24;96636.75;;;8.36;81.17
13407;BME280;6774;48.208;10.766;2024-01-25T00:49:54;96637.59;;;8.26;81.52
13407;BME280;6774;48.208;10.766;2024-01-25T00:52:24;96631.81;;;8.13;82.38
13407;BME280;6774;48.208;10.766;2024-01-25T00:54:52;96638.47;;;8.17;82.31
13407;BME280;6774;48.208;10.766;2024-01-25T00:57:21;96635.69;;;8.19;83.07
13407;BME280;6774;48.208;10.766;2024-01-25T00:59:49;96634.38;;;8.05;83.79
13407;BME280;6774;48.208;10.766;2024-01-25T01:02:18;96644.97;;;8.13;82.51
13407;BME280;6774;48.208;10.766;2024-01-25T01:04:49;96627.53;;;8.12;82.90
13407;BME280;6774;48.208;10.766;2024-01-25T01:07:19;96622.88;;;8.06;83.18
13407;BME280;6774;48.208;10.766;2024-01-25T01:09:47;96621.41;;;8.21;82.77
13407;BME280;6774;48.208;10.766;2024-01-25T01:12:15;96613.84;;;8.18;83.04
13407;BME280;6774;48.208;10.766;2024-01-25T01:14:43;96613.53;;;8.21;82.43
13407;BME280;6774;48.208;10.766;2024-01-25T01:17:11;96625.03;;;8.20;82.92
13407;BME280;6774;48.208;10.766;2024-01-25T01:19:39;96632.69;;;8.04;83.79
13407;BME280;6774;48.208;10.766;2024-01-25T01:22:07;96616.06;;;8.13;83.54
13407;BME280;6774;48.208;10.766;2024-01-25T01:24:37;96611.09;;;8.10;83.79
13407;BME280;6774;48.208;10.766;2024-01-25T01:27:04;96610.16;;;8.02;84.61
13407;BME280;6774;48.208;10.766;2024-01-25T01:29:32;96613.34;;;8.05;84.09
13407;BME280;6774;48.208;10.766;2024-01-25T01:32:00;96613.44;;;8.13;83.99
13407;BME280;6774;48.208;10.766;2024-01-25T01:34:29;96622.19;;;8.04;84.41
13407;BME280;6774;48.208;10.766;2024-01-25T01:36:57;96612.75;;;8.11;84.67
13407;BME280;6774;48.208;10.766;2024-01-25T01:39:25;96619.66;;;8.12;84.21
13407;BME280;6774;48.208;10.766;2024-01-25T01:41:54;96630.06;;;8.04;85.21
13407;BME280;6774;48.208;10.766;2024-01-25T01:44:22;96624.66;;;8.15;84.25
13407;BME280;6774;48.208;10.766;2024-01-25T01:46:50;96623.00;;;8.14;84.71
13407;BME280;6774;48.208;10.766;2024-01-25T01:49:18;96609.66;;;8.25;84.33
13407;BME280;6774;48.208;10.766;2024-01-25T01:51:46;96618.78;;;8.21;83.38
13407;BME280;6774;48.208;10.766;2024-01-25T01:54:15;96615.69;;;8.08;84.28
13407;BME280;6774;48.208;10.766;2024-01-25T01:56:43;96624.25;;;8.10;83.90
13407;BME280;6774;48.208;10.766;2024-01-25T01:59:14;96627.44;;;8.14;83.92
13407;BME280;6774;48.208;10.766;2024-01-25T02:01:42;96629.31;;;8.21;83.86
13407;BME280;6774;48.208;10.766;2024-01-25T02:04:10;96627.75;;;8.28;83.51
13407;BME280;6774;48.208;10.766;2024-01-25T02:06:39;96629.03;;;8.24;83.42
13407;BME280;6774;48.208;10.766;2024-01-25T02:09:07;96626.25;;;8.36;83.36
13407;BME280;6774;48.208;10.766;2024-01-25T02:11:36;96618.91;;;8.30;83.51
13407;BME280;6774;48.208;10.766;2024-01-25T02:14:04;96612.97;;;8.27;82.99
13407;BME280;6774;48.208;10.766;2024-01-25T02:16:34;96607.28;;;8.22;83.86
13407;BME280;6774;48.208;10.766;2024-01-25T02:19:03;96609.06;;;8.32;83.29
13407;BME280;6774;48.208;10.766;2024-01-25T02:21:30;96620.44;;;8.32;84.51
13407;BME280;6774;48.208;10.766;2024-01-25T02:24:00;96616.56;;;8.26;84.22
13407;BME280;6774;48.208;10.766;2024-01-25T02:26:28;96626.56;;;8.23;84.20
13407;BME280;6774;48.208;10.766;2024-01-25T02:28:56;96612.84;;;8.19;85.36
13407;BME280;6774;48.208;10.766;2024-01-25T02:31:24;96597.38;;;8.16;84.94
13407;BME280;6774;48.208;10.766;2024-01-25T02:33:51;96613.06;;;8.08;85.01
13407;BME280;6774;48.208;10.766;2024-01-25T02:36:21;96605.94;;;8.18;84.32
13407;BME280;6774;48.208;10.766;2024-01-25T02:38:49;96599.19;;;8.16;85.06
13407;BME280;6774;48.208;10.766;2024-01-25T02:41:18;96607.50;;;8.11;85.23
13407;BME280;6774;48.208;10.766;2024-01-25T02:43:46;96607.78;;;8.08;85.20
13407;BME280;6774;48.208;10.766;2024-01-25T02:46:14;96588.41;;;8.09;86.39
13407;BME280;6774;48.208;10.766;2024-01-25T02:48:42;96597.59;;;8.05;85.05
13407;BME280;6774;48.208;10.766;2024-01-25T02:51:10;96595.06;;;8.04;85.65
13407;BME280;6774;48.208;10.766;2024-01-25T02:53:38;96586.19;;;8.14;85.18
13407;BME280;6774;48.208;10.766;2024-01-25T02:56:06;96595.66;;;7.97;85.39
13407;BME280;6774;48.208;10.766;2024-01-25T02:58:35;96592.41;;;8.13;84.79
13407;BME280;6774;48.208;10.766;2024-01-25T03:01:02;96596.75;;;8.05;84.64
13407;BME280;6774;48.208;10.766;2024-01-25T03:03:30;96595.31;;;8.10;84.65
13407;BME280;6774;48.208;10.766;2024-01-25T03:05:58;96597.31;;;7.98;85.70
13407;BME280;6774;48.208;10.766;2024-01-25T03:08:26;96590.06;;;8.10;85.33
13407;BME280;6774;48.208;10.766;2024-01-25T03:10:54;96582.28;;;7.91;86.01
13407;BME280;6774;48.208;10.766;2024-01-25T03:13:22;96590.56;;;7.96;86.67
13407;BME280;6774;48.208;10.766;2024-01-25T03:15:52;96589.06;;;7.84;87.29
13407;BME280;6774;48.208;10.766;2024-01-25T03:18:20;96598.50;;;7.77;87.96
13407;BME280;6774;48.208;10.766;2024-01-25T03:20:48;96573.41;;;7.55;89.11
13407;BME280;6774;48.208;10.766;2024-01-25T03:23:17;96580.56;;;7.62;89.57
13407;BME280;6774;48.208;10.766;2024-01-25T03:25:45;96578.81;;;7.53;89.44
13407;BME280;6774;48.208;10.766;2024-01-25T03:28:13;96569.28;;;7.52;89.30
13407;BME280;6774;48.208;10.766;2024-01-25T03:30:43;96575.22;;;7.54;89.53
13407;BME280;6774;48.208;10.766;2024-01-25T03:33:12;96582.81;;;7.48;89.93
13407;BME280;6774;48.208;10.766;2024-01-25T03:35:40;96585.28;;;7.49;90.27
13407;BME280;6774;48.208;10.766;2024-01-25T03:38:08;96597.75;;;7.47;90.59
13407;BME280;6774;48.208;10.766;2024-01-25T03:40:36;96595.81;;;7.49;90.93
13407;BME280;6774;48.208;10.766;2024-01-25T03:43:04;96588.66;;;7.41;90.28
13407;BME280;6774;48.208;10.766;2024-01-25T03:45:44;96591.16;;;7.33;91.26
13407;BME280;6774;48.208;10.766;2024-01-25T03:48:14;96591.66;;;7.47;90.79
13407;BME280;6774;48.208;10.766;2024-01-25T03:50:42;96614.31;;;7.48;90.36
13407;BME280;6774;48.208;10.766;2024-01-25T03:53:10;96620.16;;;7.51;90.04
13407;BME280;6774;48.208;10.766;2024-01-25T03:55:37;96610.47;;;7.52;90.40
13407;BME280;6774;48.208;10.766;2024-01-25T03:58:05;96625.41;;;7.51;90.62
13407;BME280;6774;48.208;10.766;2024-01-25T04:00:33;96621.25;;;7.39;90.81
13407;BME280;6774;48.208;10.766;2024-01-25T04:03:01;96625.66;;;7.48;90.14
13407;BME280;6774;48.208;10.766;2024-01-25T04:05:30;96617.09;;;7.46;90.72
13407;BME280;6774;48.208;10.766;2024-01-25T04:07:58;96625.94;;;7.45;90.39
13407;BME280;6774;48.208;10.766;2024-01-25T04:10:26;96621.81;;;7.43;90.45
13407;BME280;6774;48.208;10.766;2024-01-25T04:12:54;96628.13;;;7.50;90.70
13407;BME280;6774;48.208;10.766;2024-01-25T04:15:22;96639.22;;;7.53;90.35
13407;BME280;6774;48.208;10.766;2024-01-25T04:17:50;96626.25;;;7.42;90.98
13407;BME280;6774;48.208;10.766;2024-01-25T04:20:19;96638.78;;;7.48;90.59
13407;BME280;6774;48.208;10.766;2024-01-25T04:22:49;96629.25;;;7.47;90.44
13407;BME280;6774;48.208;10.766;2024-01-25T04:25:17;96621.81;;;7.52;91.12
13407;BME280;6774;48.208;10.766;2024-01-25T04:27:45;96617.09;;;7.46;91.00
13407;BME280;6774;48.208;10.766;2024-01-25T04:30:13;96632.03;;;7.36;91.24
13407;BME280;6774;48.208;10.766;2024-01-25T04:32:41;96637.00;;;7.39;90.56
13407;BME280;6774;48.208;10.766;2024-01-25T04:35:09;96620.69;;;7.45;90.32
13407;BME280;6774;48.208;10.766;2024-01-25T04:37:37;96621.00;;;7.42;89.98
13407;BME280;6774;48.208;10.766;2024-01-25T04:40:07;96623.03;;;7.48;89.80
13407;BME280;6774;48.208;10.766;2024-01-25T04:42:37;96645.19;;;7.36;90.62
13407;BME280;6774;48.208;10.766;2024-01-25T04:45:06;96631.75;;;7.49;89.85
13407;BME280;6774;48.208;10.766;2024-01-25T04:47:34;96624.44;;;7.52;89.34
13407;BME280;6774;48.208;10.766;2024-01-25T04:50:02;96629.00;;;7.50;89.00
13407;BME280;6774;48.208;10.766;2024-01-25T04:52:30;96629.81;;;7.51;89.52
13407;BME280;6774;48.208;10.766;2024-01-25T04:54:57;96640.06;;;7.44;89.71
13407;BME280;6774;48.208;10.766;2024-01-25T04:57:27;96634.50;;;7.47;90.01
13407;BME280;6774;48.208;10.766;2024-01-25T04:59:56;96654.28;;;7.51;90.13
13407;BME280;6774;48.208;10.766;2024-01-25T05:02:24;96667.69;;;7.48;90.76
13407;BME280;6774;48.208;10.766;2024-01-25T05:04:52;96678.44;;;7.64;90.21
13407;BME280;6774;48.208;10.766;2024-01-25T05:07:22;96682.59;;;7.67;89.87
13407;BME280;6774;48.208;10.766;2024-01-25T05:09:56;96678.75;;;7.61;90.19
13407;BME280;6774;48.208;10.766;2024-01-25T05:12:26;96681.25;;;7.53;90.10
13407;BME280;6774;48.208;10.766;2024-01-25T05:14:54;96690.63;;;7.65;90.59
13407;BME280;6774;48.208;10.766;2024-01-25T05:17:23;96684.84;;;7.52;90.48
13407;BME280;6774;48.208;10.766;2024-01-25T05:19:51;96688.00;;;7.46;90.66
13407;BME280;6774;48.208;10.766;2024-01-25T05:22:19;96695.19;;;7.44;90.69
13407;BME280;6774;48.208;10.766;2024-01-25T05:24:51;96690.09;;;7.52;90.74
13407;BME280;6774;48.208;10.766;2024-01-25T05:27:19;96699.19;;;7.48;90.14
13407;BME280;6774;48.208;10.766;2024-01-25T05:29:51;96703.50;;;7.68;90.07
13407;BME280;6774;48.208;10.766;2024-01-25T05:32:21;96695.34;;;7.62;89.82
13407;BME280;6774;48.208;10.766;2024-01-25T05:34:50;96709.97;;;7.55;90.05
13407;BME280;6774;48.208;10.766;2024-01-25T05:37:18;96691.59;;;7.55;90.02
13407;BME280;6774;48.208;10.766;2024-01-25T05:39:46;96690.34;;;7.49;90.10
13407;BME280;6774;48.208;10.766;2024-01-25T05:42:15;96708.03;;;7.47;90.95
13407;BME280;6774;48.208;10.766;2024-01-25T05:44:42;96695.88;;;7.46;90.45
13407;BME280;6774;48.208;10.766;2024-01-25T05:47:12;96693.28;;;7.36;91.19
13407;BME280;6774;48.208;10.766;2024-01-25T05:49:40;96699.06;;;7.50;90.57
13407;BME280;6774;48.208;10.766;2024-01-25T05:52:08;96703.47;;;7.39;90.79
13407;BME280;6774;48.208;10.766;2024-01-25T05:54:36;96713.28;;;7.57;90.97
13407;BME280;6774;48.208;10.766;2024-01-25T05:57:04;96712.63;;;7.55;91.01
13407;BME280;6774;48.208;10.766;2024-01-25T05:59:32;96713.31;;;7.47;91.21
13407;BME280;6774;48.208;10.766;2024-01-25T06:02:00;96715.91;;;7.66;90.39
13407;BME280;6774;48.208;10.766;2024-01-25T06:04:29;96734.59;;;7.63;90.04
13407;BME280;6774;48.208;10.766;2024-01-25T06:06:57;96720.19;;;7.58;90.37
13407;BME280;6774;48.208;10.766;2024-01-25T06:09:25;96717.56;;;7.58;90.28
13407;BME280;6774;48.208;10.766;2024-01-25T06:11:53;96705.16;;;7.60;90.10
13407;BME280;6774;48.208;10.766;2024-01-25T06:14:21;96713.16;;;7.39;90.93
13407;BME280;6774;48.208;10.766;2024-01-25T06:16:49;96696.19;;;7.43;90.74
13407;BME280;6774;48.208;10.766;2024-01-25T06:19:16;96702.94;;;7.36;90.97
13407;BME280;6774;48.208;10.766;2024-01-25T06:21:45;96718.84;;;7.25;90.83
13407;BME280;6774;48.208;10.766;2024-01-25T06:24:13;96706.94;;;7.21;91.41
13407;BME280;6774;48.208;10.766;2024-01-25T06:26:41;96712.75;;;7.15;92.07
13407;BME280;6774;48.208;10.766;2024-01-25T06:29:09;96717.72;;;7.18;92.03
13407;BME280;6774;48.208;10.766;2024-01-25T06:31:41;96740.09;;;7.22;91.03
13407;BME280;6774;48.208;10.766;2024-01-25T06:34:10;96738.59;;;7.29;91.16
13407;BME280;6774;48.208;10.766;2024-01-25T06:36:38;96736.25;;;7.26;90.51
13407;BME280;6774;48.208;10.766;2024-01-25T06:39:08;96765.13;;;7.26;90.59
13407;BME280;6774;48.208;10.766;2024-01-25T06:41:36;96755.84;;;7.31;90.47
13407;BME280;6774;48.208;10.766;2024-01-25T06:44:04;96762.50;;;7.26;90.63
13407;BME280;6774;48.208;10.766;2024-01-25T06:46:31;96764.16;;;7.36;89.63
13407;BME280;6774;48.208;10.766;2024-01-25T06:48:59;96774.34;;;7.10;91.12
13407;BME280;6774;48.208;10.766;2024-01-25T06:51:27;96769.53;;;7.25;90.33
13407;BME280;6774;48.208;10.766;2024-01-25T06:53:55;96768.59;;;7.36;90.30
13407;BME280;6774;48.208;10.766;2024-01-25T06:56:24;96776.34;;;7.47;89.81
13407;BME280;6774;48.208;10.766;2024-01-25T06:58:52;96792.38;;;7.63;89.56
13407;BME280;6774;48.208;10.766;2024-01-25T07:01:20;96794.03;;;7.64;89.11
13407;BME280;6774;48.208;10.766;2024-01-25T07:03:49;96795.16;;;7.72;88.33
13407;BME280;6774;48.208;10.766;2024-01-25T07:06:19;96799.97;;;7.66;88.63
13407;BME280;6774;48.208;10.766;2024-01-25T07:08:47;96796.28;;;7.79;88.27
13407;BME280;6774;48.208;10.766;2024-01-25T07:11:16;96783.81;;;7.90;88.02
13407;BME280;6774;48.208;10.766;2024-01-25T07:13:46;96802.75;;;7.84;88.04
13407;BME280;6774;48.208;10.766;2024-01-25T07:16:13;96799.41;;;8.02;88.16
13407;BME280;6774;48.208;10.766;2024-01-25T07:18:41;96806.44;;;8.20;87.10
13407;BME280;6774;48.208;10.766;2024-01-25T07:21:09;96812.00;;;8.17;87.68
13407;BME280;6774;48.208;10.766;2024-01-25T07:23:37;96813.78;;;8.26;87.20
13407;BME280;6774;48.208;10.766;2024-01-25T07:26:05;96812.00;;;8.17;87.01
13407;BME280;6774;48.208;10.766;2024-01-25T07:28:33;96816.69;;;8.33;87.63
13407;BME280;6774;48.208;10.766;2024-01-25T07:31:02;96820.88;;;8.16;87.72
13407;BME280;6774;48.208;10.766;2024-01-25T07:33:30;96831.53;;;8.05;88.63
13407;BME280;6774;48.208;10.766;2024-01-25T07:35:58;96822.81;;;8.14;87.94
13407;BME280;6774;48.208;10.766;2024-01-25T07:38:25;96809.69;;;8.05;88.40
13407;BME280;6774;48.208;10.766;2024-01-25T07:40:53;96806.31;;;8.12;87.98
13407;BME280;6774;48.208;10.766;2024-01-25T07:43:22;96809.53;;;7.96;88.41
13407;BME280;6774;48.208;10.766;2024-01-25T07:45:50;96815.34;;;8.00;88.63
13407;BME280;6774;48.208;10.766;2024-01-25T07:48:21;96828.31;;;8.11;88.44
13407;BME280;6774;48.208;10.766;2024-01-25T07:50:49;96835.81;;;8.06;88.18
13407;BME280;6774;48.208;10.766;2024-01-25T07:53:17;96845.75;;;8.03;87.96
13407;BME280;6774;48.208;10.766;2024-01-25T07:55:45;96846.88;;;8.00;87.94
13407;BME280;6774;48.208;10.766;2024-01-25T07:58:14;96845.91;;;7.72;87.48
13407;BME280;6774;48.208;10.766;2024-01-25T08:00:42;96844.09;;;8.02;86.84
13407;BME280;6774;48.208;10.766;2024-01-25T08:03:12;96840.50;;;7.93;86.71
13407;BME280;6774;48.208;10.766;2024-01-25T08:05:41;96849.63;;;8.27;86.38
13407;BME280;6774;48.208;10.766;2024-01-25T08:08:16;96852.03;;;8.77;84.91
13407;BME280;6774;48.208;10.766;2024-01-25T08:10:44;96861.19;;;8.83;83.50
13407;BME280;6774;48.208;10.766;2024-01-25T08:13:12;96856.31;;;8.88;83.20
13407;BME280;6774;48.208;10.766;2024-01-25T08:15:40;96852.44;;;8.36;83.71
13407;BME280;6774;48.208;10.766;2024-01-25T08:18:08;96858.19;;;8.59;84.28
13407;BME280;6774;48.208;10.766;2024-01-25T08:20:37;96872.59;;;8.64;84.09
13407;BME280;6774;48.208;10.766;2024-01-25T08:23:06;96866.78;;;8.12;84.22
13407;BME280;6774;48.208;10.766;2024-01-25T08:25:36;96873.75;;;8.42;83.69
13407;BME280;6774;48.208;10.766;2024-01-25T08:28:04;96870.94;;;8.34;84.38
13407;BME280;6774;48.208;10.766;2024-01-25T08:30:32;96875.81;;;8.39;85.25
13407;BME280;6774;48.208;10.766;2024-01-25T08:33:00;96873.72;;;8.23;85.34
13407;BME280;6774;48.208;10.766;2024-01-25T08:35:28;96865.03;;;8.42;84.85
13407;BME280;6774;48.208;10.766;2024-01-25T08:37:57;96867.44;;;8.72;84.07
13407;BME280;6774;48.208;10.766;2024-01-25T08:40:26;96870.38;;;8.69;83.91
13407;BME280;6774;48.208;10.766;2024-01-25T08:42:56;96868.72;;;8.59;82.64
13407;BME280;6774;48.208;10.766;2024-01-25T08:45:24;96863.34;;;8.41;83.72
13407;BME280;6774;48.208;10.766;2024-01-25T08:47:52;96874.81;;;8.69;84.07
13407;BME280;6774;48.208;10.766;2024-01-25T08:50:20;96872.84;;;8.71;83.45
13407;BME280;6774;48.208;10.766;2024-01-25T08:52:50;96874.91;;;8.77;82.79
13407;BME280;6774;48.208;10.766;2024-01-25T08:55:18;96882.50;;;8.90;80.82
13407;BME280;6774;48.208;10.766;2024-01-25T08:57:47;96881.72;;;9.17;80.21
13407;BME280;6774;48.208;10.766;2024-01-25T09:00:16;96885.50;;;9.59;79.34
13407;BME280;6774;48.208;10.766;2024-01-25T09:02:44;96890.88;;;9.85;78.49
13407;BME280;6774;48.208;10.766;2024-01-25T09:05:12;96888.56;;;10.71;74.92
13407;BME280;6774;48.208;10.766;2024-01-25T09:07:41;96883.66;;;11.87;69.79
13407;BME280;6774;48.208;10.766;2024-01-25T09:10:09;96883.59;;;11.62;68.05
13407;BME280;6774;48.208;10.766;2024-01-25T09:12:38;96888.53;;;10.45;69.52
13407;BME280;6774;48.208;10.766;2024-01-25T09:15:08;96893.19;;;10.51;72.67
13407;BME280;6774;48.208;10.766;2024-01-25T09:17:36;96902.88;;;11.21;71.07
13407;BME280;6774;48.208;10.766;2024-01-25T09:20:06;96892.84;;;10.98;67.77
13407;BME280;6774;48.208;10.766;2024-01-25T09:22:34;96899.13;;;10.97;69.56
13407;BME280;6774;48.208;10.766;2024-01-25T09:25:03;96906.03;;;11.24;70.58
13407;BME280;6774;48.208;10.766;2024-01-25T09:27:33;96909.41;;;11.34;70.64
13407;BME280;6774;48.208;10.766;2024-01-25T09:30:01;96911.22;;;12.35;66.10
13407;BME280;6774;48.208;10.766;2024-01-25T09:32:31;96900.31;;;12.54;64.85
13407;BME280;6774;48.208;10.766;2024-01-25T09:34:59;96903.75;;;10.51;66.12
13407;BME280;6774;48.208;10.766;2024-01-25T09:37:27;96891.75;;;10.39;69.01
13407;BME280;6774;48.208;10.766;2024-01-25T09:39:56;96902.06;;;9.79;71.28
13407;BME280;6774;48.208;10.766;2024-01-25T09:42:25;96900.41;;;10.49;70.22
13407;BME280;6774;48.208;10.766;2024-01-25T09:44:54;96900.16;;;9.72;69.73
13407;BME280;6774;48.208;10.766;2024-01-25T09:47:22;96906.81;;;9.93;71.34
13407;BME280;6774;48.208;10.766;2024-01-25T09:49:51;96906.53;;;9.69;70.65
13407;BME280;6774;48.208;10.766;2024-01-25T09:52:22;96900.09;;;9.26;72.25
13407;BME280;6774;48.208;10.766;2024-01-25T09:54:53;96900.25;;;8.88;73.39
13407;BME280;6774;48.208;10.766;2024-01-25T09:57:24;96900.84;;;8.62;73.93
13407;BME280;6774;48.208;10.766;2024-01-25T09:59:55;96908.84;;;8.80;72.32
13407;BME280;6774;48.208;10.766;2024-01-25T10:02:23;96906.44;;;9.06;72.72
13407;BME280;6774;48.208;10.766;2024-01-25T10:04:53;96891.06;;;8.92;69.40
13407;BME280;6774;48.208;10.766;2024-01-25T10:07:45;96915.75;;;8.91;71.15
13407;BME280;6774;48.208;10.766;2024-01-25T10:10:13;96904.16;;;8.64;73.86
13407;BME280;6774;48.208;10.766;2024-01-25T10:12:42;96915.66;;;8.63;72.90
13407;BME280;6774;48.208;10.766;2024-01-25T10:15:11;96916.25;;;9.04;72.91
13407;BME280;6774;48.208;10.766;2024-01-25T10:17:39;96910.91;;;9.33;71.62
13407;BME280;6774;48.208;10.766;2024-01-25T10:20:30;96895.97;;;9.14;71.97
13407;BME280;6774;48.208;10.766;2024-01-25T10:22:59;96891.00;;;9.11;73.29
13407;BME280;6774;48.208;10.766;2024-01-25T10:25:28;96891.63;;;8.86;72.83
13407;BME280;6774;48.208;10.766;2024-01-25T10:27:56;96880.06;;;9.88;71.80
13407;BME280;6774;48.208;10.766;2024-01-25T10:30:25;96863.59;;;10.66;69.46
13407;BME280;6774;48.208;10.766;2024-01-25T10:32:55;96871.63;;;10.03;68.78
13407;BME280;6774;48.208;10.766;2024-01-25T10:35:25;96858.22;;;11.94;66.97
13407;BME280;6774;48.208;10.766;2024-01-25T10:37:55;96850.56;;;11.75;64.54
13407;BME280;6774;48.208;10.766;2024-01-25T10:40:23;96861.56;;;12.20;63.73
13407;BME280;6774;48.208;10.766;2024-01-25T10:42:51;96845.84;;;12.11;64.61
13407;BME280;6774;48.208;10.766;2024-01-25T10:45:19;96842.72;;;12.48;65.59
13407;BME280;6774;48.208;10.766;2024-01-25T10:47:48;96839.16;;;13.83;62.02
13407;BME280;6774;48.208;10.766;2024-01-25T10:50:16;96840.81;;;12.89;61.76
13407;BME280;6774;48.208;10.766;2024-01-25T10:52:45;96840.56;;;13.31;61.17
13407;BME280;6774;48.208;10.766;2024-01-25T10:55:16;96832.97;;;13.90;58.31
13407;BME280;6774;48.208;10.766;2024-01-25T10:57:45;96841.38;;;13.32;57.47
13407;BME280;6774;48.208;10.766;2024-01-25T11:00:15;96832.63;;;13.23;59.05
13407;BME280;6774;48.208;10.766;2024-01-25T11:02:45;96834.75;;;12.56;59.26
13407;BME280;6774;48.208;10.766;2024-01-25T11:05:14;96815.88;;;12.51;60.73
13407;BME280;6774;48.208;10.766;2024-01-25T11:07:44;96822.34;;;11.41;62.68
13407;BME280;6774;48.208;10.766;2024-01-25T11:10:16;96820.75;;;10.72;63.74
13407;BME280;6774;48.208;10.766;2024-01-25T11:12:54;96826.63;;;10.66;64.86
13407;BME280;6774;48.208;10.766;2024-01-25T11:15:31;96830.81;;;12.11;64.47
13407;BME280;6774;48.208;10.766;2024-01-25T11:18:00;96816.50;;;13.72;60.23
13407;BME280;6774;48.208;10.766;2024-01-25T11:20:29;96809.72;;;14.15;56.76
13407;BME280;6774;48.208;10.766;2024-01-25T11:22:58;96811.97;;;13.50;57.52
13407;BME280;6774;48.208;10.766;2024-01-25T11:25:28;96809.56;;;12.76;59.53
13407;BME280;6774;48.208;10.766;2024-01-25T11:27:57;96802.69;;;12.27;60.22
13407;BME280;6774;48.208;10.766;2024-01-25T11:30:25;96799.97;;;11.69;61.69
13407;BME280;6774;48.208;10.766;2024-01-25T11:32:54;96800.28;;;11.58;64.17
13407;BME280;6774;48.208;10.766;2024-01-25T11:35:22;96805.00;;;12.05;63.31
13407;BME280;6774;48.208;10.766;2024-01-25T11:37:52;96802.19;;;12.23;61.09
13407;BME280;6774;48.208;10.766;2024-01-25T11:40:20;96798.19;;;12.43;60.95
13407;BME280;6774;48.208;10.766;2024-01-25T11:42:50;96805.31;;;12.43;61.23
13407;BME280;6774;48.208;10.766;2024-01-25T11:45:18;96805.53;;;12.97;60.68
13407;BME280;6774;48.208;10.766;2024-01-25T11:47:46;96792.41;;;12.32;60.01
13407;BME280;6774;48.208;10.766;2024-01-25T11:50:14;96796.22;;;12.29;63.64
13407;BME280;6774;48.208;10.766;2024-01-25T11:52:42;96790.16;;;11.37;64.37
13407;BME280;6774;48.208;10.766;2024-01-25T11:55:11;96785.06;;;11.60;63.52
13407;BME280;6774;48.208;10.766;2024-01-25T11:57:40;96774.47;;;11.44;64.37
13407;BME280;6774;48.208;10.766;2024-01-25T12:00:13;96772.22;;;11.74;63.00
13407;BME280;6774;48.208;10.766;2024-01-25T12:02:42;96771.84;;;11.60;62.60
13407;BME280;6774;48.208;10.766;2024-01-25T12:05:11;96769.06;;;11.54;62.39
13407;BME280;6774;48.208;10.766;2024-01-25T12:07:40;96773.50;;;11.45;63.54
13407;BME280;6774;48.208;10.766;2024-01-25T12:10:10;96771.47;;;11.39;64.65
13407;BME280;6774;48.208;10.766;2024-01-25T12:12:43;96769.72;;;11.05;64.69
13407;BME280;6774;48.208;10.766;2024-01-25T12:15:12;96760.03;;;11.22;64.44
13407;BME280;6774;48.208;10.766;2024-01-25T12:17:40;96761.53;;;11.33;63.52
13407;BME280;6774;48.208;10.766;2024-01-25T12:20:10;96756.88;;;11.10;62.96
13407;BME280;6774;48.208;10.766;2024-01-25T12:22:39;96763.09;;;11.44;62.54
13407;BME280;6774;48.208;10.766;2024-01-25T12:25:08;96764.94;;;11.67;62.87
13407;BME280;6774;48.208;10.766;2024-01-25T12:27:36;96772.50;;;11.46;63.39
13407;BME280;6774;48.208;10.766;2024-01-25T12:30:08;96769.13;;;11.94;64.20
13407;BME280;6774;48.208;10.766;2024-01-25T12:32:37;96754.63;;;11.32;65.60
13407;BME280;6774;48.208;10.766;2024-01-25T12:35:07;96753.50;;;10.92;64.53
13407;BME280;6774;48.208;10.766;2024-01-25T12:37:35;96765.16;;;11.16;66.19
13407;BME280;6774;48.208;10.766;2024-01-25T12:40:05;96757.00;;;11.76;63.76
13407;BME280;6774;48.208;10.766;2024-01-25T12:42:34;96756.19;;;12.24;62.10
13407;BME280;6774;48.208;10.766;2024-01-25T12:45:03;96748.78;;;12.19;62.37
13407;BME280;6774;48.208;10.766;2024-01-25T12:47:32;96749.06;;;12.24;60.57
13407;BME280;6774;48.208;10.766;2024-01-25T12:50:01;96740.66;;;11.96;60.33
13407;BME280;6774;48.208;10.766;2024-01-25T12:52:30;96738.47;;;11.67;61.60
13407;BME280;6774;48.208;10.766;2024-01-25T12:54:57;96731.47;;;11.18;62.76
13407;BME280;6774;48.208;10.766;2024-01-25T12:57:26;96737.38;;;11.11;65.72
13407;BME280;6774;48.208;10.766;2024-01-25T12:59:53;96743.00;;;11.08;63.70
13407;BME280;6774;48.208;10.766;2024-01-25T13:02:23;96735.41;;;11.14;63.85
13407;BME280;6774;48.208;10.766;2024-01-25T13:04:51;96726.88;;;11.28;62.57
13407;BME280;6774;48.208;10.766;2024-01-25T13:07:21;96727.47;;;11.80;63.07
13407;BME280;6774;48.208;10.766;2024-01-25T13:09:48;96726.97;;;11.93;62.45
13407;BME280;6774;48.208;10.766;2024-01-25T13:12:16;96725.97;;;12.02;61.36
13407;BME280;6774;48.208;10.766;2024-01-25T13:14:44;96721.16;;;12.06;62.07